Time,TemperatureF,DewpointF,PressureIn,WindDirection,WindDirectionDegrees,WindSpeedMPH,WindSpeedGustMPH,Humidity,HourlyPrecipIn,Conditions,Clouds,dailyrainin,SoftwareType,DateUTC
2013-10-06 00:02:00,43.5,34.7,30.19,North,0,2.0,2.0,71,0.00,,,0.00,meteohub,2013-10-06 07:02:00,
2013-10-06 00:07:00,43.3,34.9,30.19,North,0,0.0,2.0,72,0.00,,,0.00,meteohub,2013-10-06 07:07:00,
2013-10-06 00:12:00,43.0,34.5,30.19,East,90,2.0,2.0,72,0.00,,,0.00,meteohub,2013-10-06 07:12:00,
2013-10-06 00:17:00,43.0,34.9,30.19,SE,135,2.0,3.0,73,0.00,,,0.00,meteohub,2013-10-06 07:17:00,
2013-10-06 00:22:00,43.2,35.1,30.19,SE,135,2.0,3.0,73,0.00,,,0.00,meteohub,2013-10-06 07:22:00,
2013-10-06 00:27:00,43.0,34.9,30.20,East,90,2.0,3.0,73,0.00,,,0.00,meteohub,2013-10-06 07:27:00,
2013-10-06 00:32:00,43.0,34.9,30.19,ESE,113,2.0,2.0,73,0.00,,,0.00,meteohub,2013-10-06 07:32:00,
2013-10-06 00:37:00,43.2,35.1,30.19,SE,135,1.0,2.0,73,0.00,,,0.00,meteohub,2013-10-06 07:37:00,
2013-10-06 00:42:00,43.0,34.5,30.19,SW,225,2.0,2.0,72,0.00,,,0.00,meteohub,2013-10-06 07:42:00,
2013-10-06 00:47:00,42.8,34.3,30.19,SW,225,2.0,3.0,72,0.00,,,0.00,meteohub,2013-10-06 07:47:00,
2013-10-06 00:52:00,42.8,34.0,30.19,SW,225,2.0,3.0,71,0.00,,,0.00,meteohub,2013-10-06 07:52:00,
2013-10-06 00:57:00,42.6,34.2,30.19,SW,225,0.0,3.0,72,0.00,,,0.00,meteohub,2013-10-06 07:57:00,
2013-10-06 01:02:00,42.3,33.8,30.19,SW,225,0.0,2.0,72,0.00,,,0.00,meteohub,2013-10-06 08:02:00,
2013-10-06 01:07:00,42.1,33.8,30.19,SW,225,1.0,2.0,72,0.00,,,0.00,meteohub,2013-10-06 08:07:00,
2013-10-06 01:12:00,41.9,33.6,30.18,SW,225,0.0,2.0,72,0.00,,,0.00,meteohub,2013-10-06 08:12:00,
2013-10-06 01:17:00,41.7,33.4,30.19,SW,225,0.0,2.0,72,0.00,,,0.00,meteohub,2013-10-06 08:17:00,
2013-10-06 01:22:00,41.4,33.1,30.19,SE,135,1.0,2.0,72,0.00,,,0.00,meteohub,2013-10-06 08:22:00,
2013-10-06 01:27:00,41.0,33.1,30.19,SE,135,0.0,1.0,73,0.00,,,0.00,meteohub,2013-10-06 08:27:00,
2013-10-06 01:32:00,40.8,33.3,30.18,SE,135,0.0,1.0,74,0.00,,,0.00,meteohub,2013-10-06 08:32:00,
2013-10-06 01:37:00,40.5,33.1,30.18,East,90,0.0,1.0,75,0.00,,,0.00,meteohub,2013-10-06 08:37:00,
2013-10-06 01:42:00,39.9,32.9,30.18,NNW,338,1.0,1.0,76,0.00,,,0.00,meteohub,2013-10-06 08:42:00,
2013-10-06 01:47:00,39.6,32.9,30.18,South,180,1.0,2.0,77,0.00,,,0.00,meteohub,2013-10-06 08:47:00,
2013-10-06 01:52:00,39.4,33.1,30.18,East,90,0.0,2.0,78,0.00,,,0.00,meteohub,2013-10-06 08:52:00,
2013-10-06 01:57:00,39.4,33.1,30.18,East,90,2.0,2.0,78,0.00,,,0.00,meteohub,2013-10-06 08:57:00,
2013-10-06 02:02:00,39.4,32.7,30.18,East,90,1.0,2.0,77,0.00,,,0.00,meteohub,2013-10-06 09:02:00,
2013-10-06 02:07:00,39.6,32.9,30.17,SE,135,1.0,2.0,77,0.00,,,0.00,meteohub,2013-10-06 09:07:00,
2013-10-06 02:12:00,39.6,32.9,30.17,South,180,0.0,2.0,77,0.00,,,0.00,meteohub,2013-10-06 09:12:00,
2013-10-06 02:17:00,39.6,32.5,30.17,NE,45,2.0,2.0,76,0.00,,,0.00,meteohub,2013-10-06 09:17:00,
2013-10-06 02:21:00,39.4,32.5,30.17,NE,45,1.0,2.0,76,0.00,,,0.00,meteohub,2013-10-06 09:21:00,
2013-10-06 02:27:00,39.4,32.5,30.17,NE,45,1.0,2.0,76,0.00,,,0.00,meteohub,2013-10-06 09:27:00,
2013-10-06 02:32:00,39.4,32.5,30.17,NE,45,1.0,2.0,76,0.00,,,0.00,meteohub,2013-10-06 09:32:00,
2013-10-06 02:37:00,39.0,32.4,30.17,SW,225,1.0,1.0,77,0.00,,,0.00,meteohub,2013-10-06 09:37:00,
2013-10-06 02:42:00,38.8,32.2,30.17,SW,225,0.0,2.0,77,0.00,,,0.00,meteohub,2013-10-06 09:42:00,
2013-10-06 02:47:00,38.7,31.8,30.17,SE,135,1.0,2.0,76,0.00,,,0.00,meteohub,2013-10-06 09:47:00,
2013-10-06 02:52:00,38.5,31.8,30.17,NW,315,0.0,2.0,77,0.00,,,0.00,meteohub,2013-10-06 09:52:00,
2013-10-06 02:57:00,38.3,31.6,30.16,East,90,1.0,2.0,77,0.00,,,0.00,meteohub,2013-10-06 09:57:00,
2013-10-06 03:02:00,37.9,31.5,30.16,East,90,0.0,2.0,77,0.00,,,0.00,meteohub,2013-10-06 10:02:00,
2013-10-06 03:07:00,37.8,31.3,30.16,West,270,1.0,1.0,77,0.00,,,0.00,meteohub,2013-10-06 10:07:00,
2013-10-06 03:12:00,37.6,31.1,30.15,West,270,0.0,1.0,77,0.00,,,0.00,meteohub,2013-10-06 10:12:00,
2013-10-06 03:17:00,37.4,31.1,30.16,SW,225,1.0,1.0,78,0.00,,,0.00,meteohub,2013-10-06 10:17:00,
2013-10-06 03:22:00,37.2,29.7,30.15,NE,45,0.0,1.0,74,0.00,,,0.00,meteohub,2013-10-06 10:22:00,
2013-10-06 03:27:00,37.4,31.1,30.15,SW,225,0.0,1.0,78,0.00,,,0.00,meteohub,2013-10-06 10:27:00,
2013-10-06 03:32:00,37.4,30.9,30.16,East,90,0.0,2.0,77,0.00,,,0.00,meteohub,2013-10-06 10:32:00,
2013-10-06 03:37:00,37.0,29.1,30.15,East,90,0.0,2.0,73,0.00,,,0.00,meteohub,2013-10-06 10:37:00,
2013-10-06 03:42:00,36.9,28.9,30.15,SW,225,2.0,2.0,73,0.00,,,0.00,meteohub,2013-10-06 10:42:00,
2013-10-06 03:47:00,36.5,28.9,30.15,SW,225,1.0,2.0,74,0.00,,,0.00,meteohub,2013-10-06 10:47:00,
2013-10-06 03:52:00,36.5,28.9,30.15,SW,225,0.0,2.0,74,0.00,,,0.00,meteohub,2013-10-06 10:52:00,
2013-10-06 03:57:00,36.3,28.8,30.15,SW,225,1.0,2.0,74,0.00,,,0.00,meteohub,2013-10-06 10:57:00,
2013-10-06 04:02:00,36.1,28.6,30.14,SW,225,2.0,2.0,74,0.00,,,0.00,meteohub,2013-10-06 11:02:00,
2013-10-06 04:07:00,36.3,28.8,30.14,East,90,0.0,2.0,74,0.00,,,0.00,meteohub,2013-10-06 11:07:00,
2013-10-06 04:12:00,36.5,28.8,30.14,SW,225,1.0,2.0,73,0.00,,,0.00,meteohub,2013-10-06 11:12:00,
2013-10-06 04:17:00,36.9,28.9,30.14,SW,225,2.0,2.0,73,0.00,,,0.00,meteohub,2013-10-06 11:17:00,
2013-10-06 04:22:00,36.9,28.8,30.14,NW,315,1.0,2.0,72,0.00,,,0.00,meteohub,2013-10-06 11:22:00,
2013-10-06 04:27:00,36.5,28.4,30.14,South,180,1.0,2.0,72,0.00,,,0.00,meteohub,2013-10-06 11:27:00,
2013-10-06 04:32:00,36.1,28.0,30.13,South,180,0.0,2.0,72,0.00,,,0.00,meteohub,2013-10-06 11:32:00,
2013-10-06 04:37:00,36.1,28.0,30.14,East,90,2.0,2.0,72,0.00,,,0.00,meteohub,2013-10-06 11:37:00,
2013-10-06 04:42:00,36.1,28.0,30.13,East,90,0.0,2.0,72,0.00,,,0.00,meteohub,2013-10-06 11:42:00,
2013-10-06 04:47:00,36.0,27.9,30.14,SE,135,2.0,2.0,72,0.00,,,0.00,meteohub,2013-10-06 11:47:00,
2013-10-06 04:52:00,36.3,28.2,30.14,East,90,2.0,2.0,72,0.00,,,0.00,meteohub,2013-10-06 11:52:00,
2013-10-06 04:57:00,37.2,29.1,30.13,SE,135,3.0,3.0,72,0.00,,,0.00,meteohub,2013-10-06 11:57:00,
2013-10-06 05:02:00,38.1,30.6,30.13,NE,45,1.0,3.0,74,0.00,,,0.00,meteohub,2013-10-06 12:02:00,
2013-10-06 05:07:00,38.1,30.2,30.14,East,90,2.0,3.0,73,0.00,,,0.00,meteohub,2013-10-06 12:07:00,
2013-10-06 05:12:00,37.9,29.7,30.13,NE,45,1.0,3.0,72,0.00,,,0.00,meteohub,2013-10-06 12:12:00,
2013-10-06 05:17:00,37.6,29.3,30.13,North,0,1.0,2.0,72,0.00,,,0.00,meteohub,2013-10-06 12:17:00,
2013-10-06 05:22:00,37.4,29.1,30.13,North,0,2.0,2.0,72,0.00,,,0.00,meteohub,2013-10-06 12:22:00,
2013-10-06 05:27:00,37.4,29.1,30.13,NE,45,1.0,2.0,72,0.00,,,0.00,meteohub,2013-10-06 12:27:00,
2013-10-06 05:32:00,37.6,29.1,30.13,East,90,2.0,2.0,71,0.00,,,0.00,meteohub,2013-10-06 12:32:00,
2013-10-06 05:37:00,37.9,29.1,30.13,SE,135,2.0,2.0,70,0.00,,,0.00,meteohub,2013-10-06 12:37:00,
2013-10-06 05:42:00,38.5,29.1,30.13,SE,135,2.0,2.0,69,0.00,,,0.00,meteohub,2013-10-06 12:42:00,
2013-10-06 05:47:00,38.5,28.8,30.13,SE,135,1.0,2.0,68,0.00,,,0.00,meteohub,2013-10-06 12:47:00,
2013-10-06 05:52:00,38.3,28.8,30.13,SE,135,1.0,2.0,68,0.00,,,0.00,meteohub,2013-10-06 12:52:00,
2013-10-06 05:57:00,37.8,27.9,30.13,SE,135,0.0,2.0,67,0.00,,,0.00,meteohub,2013-10-06 12:57:00,
2013-10-06 06:02:00,37.4,27.5,30.13,SW,225,0.0,2.0,67,0.00,,,0.00,meteohub,2013-10-06 13:02:00,
2013-10-06 06:07:00,37.0,26.1,30.12,SW,225,0.0,2.0,64,0.00,,,0.00,meteohub,2013-10-06 13:07:00,
2013-10-06 06:12:00,36.7,25.7,30.12,SW,225,0.0,2.0,64,0.00,,,0.00,meteohub,2013-10-06 13:12:00,
2013-10-06 06:17:00,36.3,25.7,30.12,SW,225,0.0,1.0,65,0.00,,,0.00,meteohub,2013-10-06 13:17:00,
2013-10-06 06:22:00,36.0,25.7,30.12,SW,225,2.0,2.0,66,0.00,,,0.00,meteohub,2013-10-06 13:22:00,
2013-10-06 06:27:00,35.6,25.7,30.12,South,180,1.0,2.0,67,0.00,,,0.00,meteohub,2013-10-06 13:27:00,
2013-10-06 06:32:00,35.4,26.2,30.12,West,270,2.0,2.0,69,0.00,,,0.00,meteohub,2013-10-06 13:32:00,
2013-10-06 06:37:00,35.2,26.4,30.13,South,180,2.0,4.0,70,0.00,,,0.00,meteohub,2013-10-06 13:37:00,
2013-10-06 06:42:00,35.4,26.6,30.12,NW,315,2.0,4.0,70,0.00,,,0.00,meteohub,2013-10-06 13:42:00,
2013-10-06 06:47:00,35.2,26.8,30.12,South,180,1.0,3.0,71,0.00,,,0.00,meteohub,2013-10-06 13:47:00,
2013-10-06 06:52:00,35.1,26.6,30.12,NE,45,2.0,3.0,71,0.00,,,0.00,meteohub,2013-10-06 13:52:00,
2013-10-06 06:57:00,34.7,26.6,30.12,NW,315,2.0,3.0,72,0.00,,,0.00,meteohub,2013-10-06 13:57:00,
2013-10-06 07:02:00,34.5,26.4,30.11,NE,45,1.0,2.0,72,0.00,,,0.00,meteohub,2013-10-06 14:02:00,
2013-10-06 07:07:00,34.3,26.6,30.12,East,90,1.0,2.0,73,0.00,,,0.00,meteohub,2013-10-06 14:07:00,
2013-10-06 07:12:00,34.3,26.6,30.12,SW,225,2.0,2.0,73,0.00,,,0.00,meteohub,2013-10-06 14:12:00,
2013-10-06 07:17:00,34.2,26.4,30.12,North,0,2.0,2.0,73,0.00,,,0.00,meteohub,2013-10-06 14:17:00,
2013-10-06 07:22:00,34.0,26.2,30.11,SW,225,1.0,2.0,73,0.00,,,0.00,meteohub,2013-10-06 14:22:00,
2013-10-06 07:27:00,34.0,26.6,30.11,East,90,2.0,2.0,74,0.00,,,0.00,meteohub,2013-10-06 14:27:00,
2013-10-06 07:32:00,34.0,26.6,30.12,SSW,203,2.0,2.0,74,0.00,,,0.00,meteohub,2013-10-06 14:32:00,
2013-10-06 07:37:00,35.1,27.9,30.12,East,90,2.0,2.0,75,0.00,,,0.00,meteohub,2013-10-06 14:37:00,
2013-10-06 07:42:00,36.3,28.8,30.11,East,90,2.0,2.0,74,0.00,,,0.00,meteohub,2013-10-06 14:42:00,
2013-10-06 07:47:00,37.9,31.5,30.12,East,90,2.0,3.0,77,0.00,,,0.00,meteohub,2013-10-06 14:47:00,
2013-10-06 07:52:00,39.4,31.8,30.11,East,90,2.0,3.0,74,0.00,,,0.00,meteohub,2013-10-06 14:52:00,
2013-10-06 07:57:00,40.8,32.5,30.11,NE,45,5.0,5.0,72,0.00,,,0.00,meteohub,2013-10-06 14:57:00,
2013-10-06 08:02:00,42.1,32.4,30.11,East,90,6.0,6.0,68,0.00,,,0.00,meteohub,2013-10-06 15:02:00,
2013-10-06 08:07:00,44.1,31.8,30.11,East,90,6.0,6.0,62,0.00,,,0.00,meteohub,2013-10-06 15:07:00,
2013-10-06 08:12:00,45.5,31.6,30.11,ESE,113,9.0,9.0,58,0.00,,,0.00,meteohub,2013-10-06 15:12:00,
2013-10-06 08:17:00,47.5,31.6,30.11,NE,45,2.0,9.0,54,0.00,,,0.00,meteohub,2013-10-06 15:17:00,
2013-10-06 08:22:00,49.5,32.0,30.11,South,180,2.0,9.0,51,0.00,,,0.00,meteohub,2013-10-06 15:22:00,
2013-10-06 08:27:00,51.1,32.5,30.11,NE,45,2.0,9.0,49,0.00,,,0.00,meteohub,2013-10-06 15:27:00,
2013-10-06 08:32:00,52.0,31.8,30.10,East,90,2.0,4.0,46,0.00,,,0.00,meteohub,2013-10-06 15:32:00,
2013-10-06 08:37:00,52.9,32.7,30.11,East,90,2.0,4.0,46,0.00,,,0.00,meteohub,2013-10-06 15:37:00,
2013-10-06 08:42:00,53.4,32.0,30.11,East,90,4.0,4.0,44,0.00,,,0.00,meteohub,2013-10-06 15:42:00,
2013-10-06 08:47:00,54.3,31.1,30.12,SE,135,3.0,4.0,41,0.00,,,0.00,meteohub,2013-10-06 15:47:00,
2013-10-06 08:52:00,55.2,30.0,30.11,NE,45,4.0,4.0,38,0.00,,,0.00,meteohub,2013-10-06 15:52:00,
2013-10-06 08:57:00,55.9,29.3,30.11,South,180,4.0,8.0,36,0.00,,,0.00,meteohub,2013-10-06 15:57:00,
2013-10-06 09:02:00,55.9,28.0,30.11,NE,45,4.0,8.0,34,0.00,,,0.00,meteohub,2013-10-06 16:02:00,
2013-10-06 09:07:00,56.3,28.2,30.11,SE,135,7.0,8.0,34,0.00,,,0.00,meteohub,2013-10-06 16:07:00,
2013-10-06 09:12:00,56.7,28.6,30.10,East,90,8.0,8.0,34,0.00,,,0.00,meteohub,2013-10-06 16:12:00,
2013-10-06 09:17:00,56.7,27.9,30.11,ESE,113,11.0,11.0,33,0.00,,,0.00,meteohub,2013-10-06 16:17:00,
2013-10-06 09:22:00,57.0,27.5,30.10,South,180,4.0,11.0,32,0.00,,,0.00,meteohub,2013-10-06 16:22:00,
2013-10-06 09:27:00,57.2,26.1,30.10,ESE,113,9.0,11.0,30,0.00,,,0.00,meteohub,2013-10-06 16:27:00,
2013-10-06 09:32:00,57.9,26.6,30.10,SE,135,7.0,11.0,30,0.00,,,0.00,meteohub,2013-10-06 16:32:00,
2013-10-06 09:37:00,58.3,25.3,30.10,SE,135,12.0,12.0,28,0.00,,,0.00,meteohub,2013-10-06 16:37:00,
2013-10-06 09:42:00,58.8,25.0,30.09,East,90,11.0,12.0,27,0.00,,,0.00,meteohub,2013-10-06 16:42:00,
2013-10-06 09:47:00,59.2,23.4,30.09,East,90,8.0,12.0,25,0.00,,,0.00,meteohub,2013-10-06 16:47:00,
2013-10-06 09:52:00,59.7,23.9,30.09,ENE,68,9.0,13.0,25,0.00,,,0.00,meteohub,2013-10-06 16:52:00,
2013-10-06 09:57:00,59.9,23.9,30.09,ESE,113,7.0,15.0,25,0.00,,,0.00,meteohub,2013-10-06 16:57:00,
2013-10-06 10:02:00,60.4,23.5,30.09,SE,135,7.0,15.0,24,0.00,,,0.00,meteohub,2013-10-06 17:02:00,
2013-10-06 10:07:00,60.8,23.7,30.09,SE,135,8.0,15.0,24,0.00,,,0.00,meteohub,2013-10-06 17:07:00,
2013-10-06 10:12:00,61.2,23.0,30.09,SE,135,8.0,13.0,23,0.00,,,0.00,meteohub,2013-10-06 17:12:00,
2013-10-06 10:17:00,61.5,24.4,30.09,SE,135,5.0,9.0,24,0.00,,,0.00,meteohub,2013-10-06 17:17:00,
2013-10-06 10:22:00,61.9,24.6,30.09,NE,45,6.0,9.0,24,0.00,,,0.00,meteohub,2013-10-06 17:22:00,
2013-10-06 10:27:00,62.6,24.3,30.09,East,90,3.0,9.0,23,0.00,,,0.00,meteohub,2013-10-06 17:27:00,
2013-10-06 10:32:00,63.3,25.9,30.09,SE,135,5.0,8.0,24,0.00,,,0.00,meteohub,2013-10-06 17:32:00,
2013-10-06 10:37:00,63.9,25.3,30.09,East,90,6.0,8.0,23,0.00,,,0.00,meteohub,2013-10-06 17:37:00,
2013-10-06 10:42:00,64.4,26.8,30.09,NE,45,3.0,8.0,24,0.00,,,0.00,meteohub,2013-10-06 17:42:00,
2013-10-06 10:47:00,65.1,28.4,30.09,SE,135,4.0,6.0,25,0.00,,,0.00,meteohub,2013-10-06 17:47:00,
2013-10-06 10:52:00,65.8,28.0,30.08,East,90,5.0,6.0,24,0.00,,,0.00,meteohub,2013-10-06 17:52:00,
2013-10-06 10:57:00,66.0,22.6,30.08,East,90,8.0,8.0,19,0.00,,,0.00,meteohub,2013-10-06 17:57:00,
2013-10-06 11:02:00,66.2,21.4,30.08,East,90,6.0,9.0,18,0.00,,,0.00,meteohub,2013-10-06 18:02:00,
2013-10-06 11:07:00,66.4,18.9,30.08,SE,135,4.0,9.0,16,0.00,,,0.00,meteohub,2013-10-06 18:07:00,
2013-10-06 11:12:00,66.9,19.2,30.08,South,180,2.0,9.0,16,0.00,,,0.00,meteohub,2013-10-06 18:12:00,
2013-10-06 11:17:00,67.3,16.5,30.07,SE,135,7.0,9.0,14,0.00,,,0.00,meteohub,2013-10-06 18:17:00,
2013-10-06 11:22:00,67.8,18.5,30.08,East,90,6.0,13.0,15,0.00,,,0.00,meteohub,2013-10-06 18:22:00,
2013-10-06 11:27:00,68.4,17.2,30.07,South,180,4.0,13.0,14,0.00,,,0.00,meteohub,2013-10-06 18:27:00,
2013-10-06 11:32:00,68.9,17.8,30.06,East,90,4.0,13.0,14,0.00,,,0.00,meteohub,2013-10-06 18:32:00,
2013-10-06 11:37:00,70.0,16.9,30.07,SW,225,4.0,6.0,13,0.00,,,0.00,meteohub,2013-10-06 18:37:00,
2013-10-06 11:42:00,70.5,17.2,30.07,East,90,4.0,6.0,13,0.00,,,0.00,meteohub,2013-10-06 18:42:00,
2013-10-06 11:47:00,70.7,15.6,30.07,ESE,113,2.0,5.0,12,0.00,,,0.00,meteohub,2013-10-06 18:47:00,
2013-10-06 11:52:00,71.4,16.2,30.06,ESE,113,2.0,5.0,12,0.00,,,0.00,meteohub,2013-10-06 18:52:00,
2013-10-06 11:57:00,72.0,14.5,30.06,ESE,113,3.0,5.0,11,0.00,,,0.00,meteohub,2013-10-06 18:57:00,
2013-10-06 12:02:00,72.1,12.6,30.06,East,90,9.0,9.0,10,0.00,,,0.00,meteohub,2013-10-06 19:02:00,
2013-10-06 12:07:00,71.6,12.2,30.06,ENE,68,4.0,9.0,10,0.00,,,0.00,meteohub,2013-10-06 19:07:00,
2013-10-06 12:12:00,71.8,12.2,30.06,East,90,5.0,9.0,10,0.00,,,0.00,meteohub,2013-10-06 19:12:00,
2013-10-06 12:17:00,71.8,12.2,30.06,East,90,11.0,11.0,10,0.00,,,0.00,meteohub,2013-10-06 19:17:00,
2013-10-06 12:22:00,72.0,12.4,30.05,NE,45,11.0,11.0,10,0.00,,,0.00,meteohub,2013-10-06 19:22:00,
2013-10-06 12:27:00,71.4,12.0,30.05,East,90,6.0,11.0,10,0.00,,,0.00,meteohub,2013-10-06 19:27:00,
2013-10-06 12:32:00,72.0,12.4,30.05,East,90,2.0,11.0,10,0.00,,,0.00,meteohub,2013-10-06 19:32:00,
2013-10-06 12:37:00,72.7,12.9,30.05,North,0,8.0,11.0,10,0.00,,,0.00,meteohub,2013-10-06 19:37:00,
2013-10-06 12:42:00,72.9,13.1,30.04,East,90,4.0,8.0,10,0.00,,,0.00,meteohub,2013-10-06 19:42:00,
2013-10-06 12:47:00,72.9,13.1,30.04,East,90,6.0,10.0,10,0.00,,,0.00,meteohub,2013-10-06 19:47:00,
2013-10-06 12:52:00,72.5,12.7,30.04,NE,45,1.0,10.0,10,0.00,,,0.00,meteohub,2013-10-06 19:52:00,
2013-10-06 12:57:00,72.7,12.9,30.04,East,90,6.0,10.0,10,0.00,,,0.00,meteohub,2013-10-06 19:57:00,
2013-10-06 13:02:00,72.7,12.9,30.04,NE,45,6.0,9.0,10,0.00,,,0.00,meteohub,2013-10-06 20:02:00,
2013-10-06 13:07:00,72.7,12.9,30.03,East,90,7.0,9.0,10,0.00,,,0.00,meteohub,2013-10-06 20:07:00,
2013-10-06 13:12:00,72.7,12.9,30.03,West,270,3.0,8.0,10,0.00,,,0.00,meteohub,2013-10-06 20:12:00,
2013-10-06 13:17:00,72.5,12.7,30.04,NE,45,2.0,8.0,10,0.00,,,0.00,meteohub,2013-10-06 20:17:00,
2013-10-06 13:22:00,72.7,12.9,30.03,East,90,4.0,8.0,10,0.00,,,0.00,meteohub,2013-10-06 20:22:00,
2013-10-06 13:27:00,72.7,12.9,30.03,East,90,4.0,8.0,10,0.00,,,0.00,meteohub,2013-10-06 20:27:00,
2013-10-06 13:32:00,73.0,13.3,30.03,East,90,2.0,7.0,10,0.00,,,0.00,meteohub,2013-10-06 20:32:00,
2013-10-06 13:37:00,73.0,13.3,30.03,SW,225,2.0,4.0,10,0.00,,,0.00,meteohub,2013-10-06 20:37:00,
2013-10-06 13:42:00,73.0,13.3,30.02,North,0,5.0,5.0,10,0.00,,,0.00,meteohub,2013-10-06 20:42:00,
2013-10-06 13:47:00,73.4,17.8,30.02,NE,45,4.0,5.0,12,0.00,,,0.00,meteohub,2013-10-06 20:47:00,
2013-10-06 13:52:00,73.6,17.8,30.01,NE,45,2.0,5.0,12,0.00,,,0.00,meteohub,2013-10-06 20:52:00,
2013-10-06 13:57:00,73.6,17.8,30.01,NE,45,3.0,5.0,12,0.00,,,0.00,meteohub,2013-10-06 20:57:00,
2013-10-06 14:02:00,73.6,17.8,30.01,East,90,4.0,5.0,12,0.00,,,0.00,meteohub,2013-10-06 21:02:00,
2013-10-06 14:07:00,73.6,17.8,30.01,North,0,4.0,4.0,12,0.00,,,0.00,meteohub,2013-10-06 21:07:00,
2013-10-06 14:12:00,73.8,18.0,30.01,NE,45,4.0,6.0,12,0.00,,,0.00,meteohub,2013-10-06 21:12:00,
2013-10-06 14:17:00,73.9,18.1,30.01,North,0,3.0,6.0,12,0.00,,,0.00,meteohub,2013-10-06 21:17:00,
2013-10-06 14:22:00,74.1,18.3,30.01,NE,45,2.0,6.0,12,0.00,,,0.00,meteohub,2013-10-06 21:22:00,
2013-10-06 14:27:00,74.1,18.3,30.01,North,0,5.0,6.0,12,0.00,,,0.00,meteohub,2013-10-06 21:27:00,
2013-10-06 14:32:00,74.1,18.3,30.00,NW,315,4.0,6.0,12,0.00,,,0.00,meteohub,2013-10-06 21:32:00,
2013-10-06 14:37:00,74.1,18.3,30.00,East,90,2.0,5.0,12,0.00,,,0.00,meteohub,2013-10-06 21:37:00,
2013-10-06 14:42:00,73.9,18.1,30.00,NW,315,2.0,5.0,12,0.00,,,0.00,meteohub,2013-10-06 21:42:00,
2013-10-06 14:47:00,74.1,18.3,29.99,SE,135,2.0,5.0,12,0.00,,,0.00,meteohub,2013-10-06 21:47:00,
2013-10-06 14:52:00,74.5,20.5,29.99,NW,315,2.0,4.0,13,0.00,,,0.00,meteohub,2013-10-06 21:52:00,
2013-10-06 14:57:00,74.8,20.7,29.99,West,270,5.0,5.0,13,0.00,,,0.00,meteohub,2013-10-06 21:57:00,
2013-10-06 15:02:00,74.8,18.9,29.99,NW,315,4.0,5.0,12,0.00,,,0.00,meteohub,2013-10-06 22:02:00,
2013-10-06 15:07:00,74.8,18.9,29.99,NW,315,5.0,7.0,12,0.00,,,0.00,meteohub,2013-10-06 22:07:00,
2013-10-06 15:12:00,75.0,20.8,29.99,NW,315,5.0,7.0,13,0.00,,,0.00,meteohub,2013-10-06 22:12:00,
2013-10-06 15:17:00,75.2,17.1,29.99,SW,225,4.0,7.0,11,0.00,,,0.00,meteohub,2013-10-06 22:17:00,
2013-10-06 15:22:00,75.7,17.4,29.99,NW,315,5.0,7.0,11,0.00,,,0.00,meteohub,2013-10-06 22:22:00,
2013-10-06 15:27:00,75.7,17.4,29.99,NW,315,4.0,7.0,11,0.00,,,0.00,meteohub,2013-10-06 22:27:00,
2013-10-06 15:32:00,75.7,17.4,29.98,NW,315,4.0,5.0,11,0.00,,,0.00,meteohub,2013-10-06 22:32:00,
2013-10-06 15:37:00,75.6,17.4,29.98,NE,45,7.0,8.0,11,0.00,,,0.00,meteohub,2013-10-06 22:37:00,
2013-10-06 15:42:00,75.2,17.1,29.98,NW,315,2.0,8.0,11,0.00,,,0.00,meteohub,2013-10-06 22:42:00,
2013-10-06 15:47:00,75.2,19.0,29.98,NE,45,5.0,7.0,12,0.00,,,0.00,meteohub,2013-10-06 22:47:00,
2013-10-06 15:52:00,75.2,21.0,29.98,NW,315,6.0,7.0,13,0.00,,,0.00,meteohub,2013-10-06 22:52:00,
2013-10-06 15:57:00,74.8,20.7,29.97,NE,45,6.0,7.0,13,0.00,,,0.00,meteohub,2013-10-06 22:57:00,
2013-10-06 16:02:00,74.5,20.5,29.98,NE,45,8.0,11.0,13,0.00,,,0.00,meteohub,2013-10-06 23:02:00,
2013-10-06 16:07:00,74.5,22.1,29.97,NE,45,7.0,11.0,14,0.00,,,0.00,meteohub,2013-10-06 23:07:00,
2013-10-06 16:12:00,74.8,20.7,29.97,NE,45,5.0,11.0,13,0.00,,,0.00,meteohub,2013-10-06 23:12:00,
2013-10-06 16:17:00,75.0,20.8,29.97,North,0,3.0,11.0,13,0.00,,,0.00,meteohub,2013-10-06 23:17:00,
2013-10-06 16:22:00,75.4,19.2,29.97,NE,45,9.0,11.0,12,0.00,,,0.00,meteohub,2013-10-06 23:22:00,
2013-10-06 16:27:00,75.6,21.2,29.97,North,0,4.0,11.0,13,0.00,,,0.00,meteohub,2013-10-06 23:27:00,
2013-10-06 16:32:00,75.6,19.4,29.97,North,0,6.0,11.0,12,0.00,,,0.00,meteohub,2013-10-06 23:32:00,
2013-10-06 16:37:00,75.6,19.4,29.97,WNW,293,3.0,11.0,12,0.00,,,0.00,meteohub,2013-10-06 23:37:00,
2013-10-06 16:42:00,75.7,19.6,29.96,North,0,2.0,8.0,12,0.00,,,0.00,meteohub,2013-10-06 23:42:00,
2013-10-06 16:47:00,75.7,21.4,29.97,NW,315,3.0,8.0,13,0.00,,,0.00,meteohub,2013-10-06 23:47:00,
2013-10-06 16:52:00,76.1,21.7,29.97,NW,315,5.0,8.0,13,0.00,,,0.00,meteohub,2013-10-06 23:52:00,
2013-10-06 16:57:00,75.7,23.2,29.96,NW,315,7.0,10.0,14,0.00,,,0.00,meteohub,2013-10-06 23:57:00,
2013-10-06 17:02:00,75.6,24.6,29.96,North,0,8.0,10.0,15,0.00,,,0.00,meteohub,2013-10-07 00:02:00,
2013-10-06 17:07:00,75.4,28.9,29.97,NW,315,6.0,10.0,18,0.00,,,0.00,meteohub,2013-10-07 00:07:00,
2013-10-06 17:12:00,75.2,28.8,29.97,NW,315,5.0,9.0,18,0.00,,,0.00,meteohub,2013-10-07 00:12:00,
2013-10-06 17:17:00,74.7,30.9,29.97,North,0,4.0,8.0,20,0.00,,,0.00,meteohub,2013-10-07 00:17:00,
2013-10-06 17:22:00,74.1,32.9,29.96,NW,315,8.0,10.0,22,0.00,,,0.00,meteohub,2013-10-07 00:22:00,
2013-10-06 17:27:00,73.6,32.4,29.97,NW,315,4.0,10.0,22,0.00,,,0.00,meteohub,2013-10-07 00:27:00,
2013-10-06 17:32:00,73.4,32.2,29.97,SE,135,5.0,9.0,22,0.00,,,0.00,meteohub,2013-10-07 00:32:00,
2013-10-06 17:37:00,72.3,30.2,29.97,West,270,6.0,10.0,21,0.00,,,0.00,meteohub,2013-10-07 00:37:00,
2013-10-06 17:42:00,71.4,32.7,29.97,North,0,4.0,11.0,24,0.00,,,0.00,meteohub,2013-10-07 00:42:00,
2013-10-06 17:47:00,70.7,33.1,29.97,NW,315,7.0,11.0,25,0.00,,,0.00,meteohub,2013-10-07 00:47:00,
2013-10-06 17:52:00,70.2,33.6,29.98,East,90,2.0,11.0,26,0.00,,,0.00,meteohub,2013-10-07 00:52:00,
2013-10-06 17:57:00,69.6,36.0,29.98,NW,315,6.0,9.0,29,0.00,,,0.00,meteohub,2013-10-07 00:57:00,
2013-10-06 18:02:00,69.1,36.3,29.98,SW,225,8.0,9.0,30,0.00,,,0.00,meteohub,2013-10-07 01:02:00,
2013-10-06 18:07:00,68.7,36.0,29.98,NW,315,5.0,9.0,30,0.00,,,0.00,meteohub,2013-10-07 01:07:00,
2013-10-06 18:12:00,68.4,35.8,29.98,SW,225,5.0,9.0,30,0.00,,,0.00,meteohub,2013-10-07 01:12:00,
2013-10-06 18:17:00,68.0,35.4,29.98,North,0,4.0,10.0,30,0.00,,,0.00,meteohub,2013-10-07 01:17:00,
2013-10-06 18:22:00,67.6,36.0,29.98,NW,315,4.0,10.0,31,0.00,,,0.00,meteohub,2013-10-07 01:22:00,
2013-10-06 18:27:00,67.1,36.3,29.98,NW,315,6.0,8.0,32,0.00,,,0.00,meteohub,2013-10-07 01:27:00,
2013-10-06 18:32:00,66.7,36.0,29.98,West,270,4.0,8.0,32,0.00,,,0.00,meteohub,2013-10-07 01:32:00,
2013-10-06 18:37:00,66.4,35.6,29.98,North,0,4.0,8.0,32,0.00,,,0.00,meteohub,2013-10-07 01:37:00,
2013-10-06 18:42:00,65.8,36.0,29.98,North,0,2.0,8.0,33,0.00,,,0.00,meteohub,2013-10-07 01:42:00,
2013-10-06 18:47:00,65.5,36.3,29.99,NW,315,3.0,8.0,34,0.00,,,0.00,meteohub,2013-10-07 01:47:00,
2013-10-06 18:52:00,65.1,36.1,29.98,SW,225,5.0,7.0,34,0.00,,,0.00,meteohub,2013-10-07 01:52:00,
2013-10-06 18:57:00,64.6,35.6,29.99,NW,315,4.0,6.0,34,0.00,,,0.00,meteohub,2013-10-07 01:57:00,
2013-10-06 19:02:00,64.2,34.5,29.99,West,270,3.0,5.0,33,0.00,,,0.00,meteohub,2013-10-07 02:02:00,
2013-10-06 19:07:00,63.9,34.9,29.99,NW,315,4.0,5.0,34,0.00,,,0.00,meteohub,2013-10-07 02:07:00,
2013-10-06 19:12:00,63.5,34.7,29.99,NE,45,3.0,5.0,34,0.00,,,0.00,meteohub,2013-10-07 02:12:00,
2013-10-06 19:17:00,63.3,34.5,29.99,NW,315,2.0,5.0,34,0.00,,,0.00,meteohub,2013-10-07 02:17:00,
2013-10-06 19:22:00,63.1,34.3,29.99,NW,315,3.0,5.0,34,0.00,,,0.00,meteohub,2013-10-07 02:22:00,
2013-10-06 19:27:00,62.8,34.7,29.99,SE,135,2.0,4.0,35,0.00,,,0.00,meteohub,2013-10-07 02:27:00,
2013-10-06 19:32:00,62.4,35.1,29.99,West,270,2.0,4.0,36,0.00,,,0.00,meteohub,2013-10-07 02:32:00,
2013-10-06 19:37:00,62.2,35.6,29.99,NW,315,2.0,5.0,37,0.00,,,0.00,meteohub,2013-10-07 02:37:00,
2013-10-06 19:42:00,62.1,35.4,29.99,NW,315,3.0,5.0,37,0.00,,,0.00,meteohub,2013-10-07 02:42:00,
2013-10-06 19:47:00,61.7,35.2,29.99,North,0,5.0,5.0,37,0.00,,,0.00,meteohub,2013-10-07 02:47:00,
2013-10-06 19:52:00,61.5,35.6,29.99,NW,315,4.0,5.0,38,0.00,,,0.00,meteohub,2013-10-07 02:52:00,
2013-10-06 19:57:00,61.2,35.4,29.99,NNW,338,4.0,5.0,38,0.00,,,0.00,meteohub,2013-10-07 02:57:00,
2013-10-06 20:02:00,61.0,35.2,29.99,SW,225,2.0,5.0,38,0.00,,,0.00,meteohub,2013-10-07 03:02:00,
2013-10-06 20:07:00,60.8,35.6,30.00,NW,315,4.0,5.0,39,0.00,,,0.00,meteohub,2013-10-07 03:07:00,
2013-10-06 20:12:00,60.6,36.1,30.00,NW,315,1.0,5.0,40,0.00,,,0.00,meteohub,2013-10-07 03:12:00,
2013-10-06 20:17:00,60.3,35.8,30.00,West,270,3.0,4.0,40,0.00,,,0.00,meteohub,2013-10-07 03:17:00,
2013-10-06 20:22:00,59.9,35.6,30.00,South,180,2.0,4.0,40,0.00,,,0.00,meteohub,2013-10-07 03:22:00,
2013-10-06 20:27:00,59.7,35.4,30.00,South,180,1.0,4.0,40,0.00,,,0.00,meteohub,2013-10-07 03:27:00,
2013-10-06 20:32:00,59.2,34.9,30.00,WNW,293,1.0,4.0,40,0.00,,,0.00,meteohub,2013-10-07 03:32:00,
2013-10-06 20:37:00,58.6,35.1,30.00,NW,315,1.0,2.0,41,0.00,,,0.00,meteohub,2013-10-07 03:37:00,
2013-10-06 20:42:00,58.5,34.9,30.00,SW,225,1.0,2.0,41,0.00,,,0.00,meteohub,2013-10-07 03:42:00,
2013-10-06 20:47:00,57.9,34.3,30.00,NE,45,0.0,2.0,41,0.00,,,0.00,meteohub,2013-10-07 03:47:00,
2013-10-06 20:52:00,57.6,34.0,30.00,SW,225,1.0,2.0,41,0.00,,,0.00,meteohub,2013-10-07 03:52:00,
2013-10-06 20:57:00,57.0,34.7,30.01,South,180,1.0,2.0,43,0.00,,,0.00,meteohub,2013-10-07 03:57:00,
2013-10-06 21:02:00,56.7,34.3,30.01,South,180,0.0,2.0,43,0.00,,,0.00,meteohub,2013-10-07 04:02:00,
2013-10-06 21:04:00,56.5,34.3,30.00,South,180,1.0,2.0,43,0.00,,,0.00,meteohub,2013-10-07 04:04:00,
2013-10-06 21:06:00,56.3,34.2,30.00,SE,135,1.0,2.0,43,0.00,,,0.00,meteohub,2013-10-07 04:06:00,
2013-10-06 21:12:00,55.9,33.8,30.00,SW,225,2.0,2.0,43,0.00,,,0.00,meteohub,2013-10-07 04:12:00,
2013-10-06 21:18:00,55.2,33.6,30.00,NE,45,1.0,2.0,44,0.00,,,0.00,meteohub,2013-10-07 04:18:00,
2013-10-06 21:24:00,54.5,34.2,30.01,SW,225,0.0,2.0,46,0.00,,,0.00,meteohub,2013-10-07 04:24:00,
2013-10-06 21:30:00,54.1,34.3,30.01,SE,135,2.0,2.0,47,0.00,,,0.00,meteohub,2013-10-07 04:30:00,
2013-10-06 21:36:00,53.2,34.5,30.00,South,180,0.0,2.0,49,0.00,,,0.00,meteohub,2013-10-07 04:36:00,
2013-10-06 21:42:00,52.7,34.5,30.00,SW,225,2.0,2.0,50,0.00,,,0.00,meteohub,2013-10-07 04:42:00,
2013-10-06 21:47:00,52.0,34.3,30.00,SW,225,2.0,2.0,51,0.00,,,0.00,meteohub,2013-10-07 04:47:00,
2013-10-06 21:52:00,51.3,34.7,30.00,SW,225,2.0,2.0,53,0.00,,,0.00,meteohub,2013-10-07 04:52:00,
2013-10-06 21:57:00,50.7,35.1,30.00,SW,225,0.0,2.0,55,0.00,,,0.00,meteohub,2013-10-07 04:57:00,
2013-10-06 22:02:00,50.5,35.4,30.01,SW,225,2.0,2.0,56,0.00,,,0.00,meteohub,2013-10-07 05:02:00,
2013-10-06 22:07:00,50.4,35.2,30.00,SW,225,0.0,2.0,56,0.00,,,0.00,meteohub,2013-10-07 05:07:00,
2013-10-06 22:12:00,50.4,35.8,30.00,SE,135,1.0,2.0,57,0.00,,,0.00,meteohub,2013-10-07 05:12:00,
2013-10-06 22:17:00,49.8,36.1,30.00,NE,45,2.0,2.0,59,0.00,,,0.00,meteohub,2013-10-07 05:17:00,
2013-10-06 22:22:00,49.6,36.3,30.01,North,0,2.0,2.0,60,0.00,,,0.00,meteohub,2013-10-07 05:22:00,
2013-10-06 22:27:00,49.5,36.1,30.01,North,0,2.0,2.0,60,0.00,,,0.00,meteohub,2013-10-07 05:27:00,
2013-10-06 22:32:00,49.3,36.0,30.01,East,90,2.0,2.0,60,0.00,,,0.00,meteohub,2013-10-07 05:32:00,
2013-10-06 22:37:00,49.1,36.3,30.01,East,90,3.0,3.0,61,0.00,,,0.00,meteohub,2013-10-07 05:37:00,
2013-10-06 22:42:00,49.5,36.5,30.01,NE,45,2.0,4.0,61,0.00,,,0.00,meteohub,2013-10-07 05:42:00,
2013-10-06 22:47:00,49.5,36.5,30.01,WNW,293,3.0,4.0,61,0.00,,,0.00,meteohub,2013-10-07 05:47:00,
2013-10-06 22:52:00,49.1,36.3,30.00,East,90,2.0,3.0,61,0.00,,,0.00,meteohub,2013-10-07 05:52:00,
2013-10-06 22:57:00,48.6,35.8,30.01,West,270,2.0,3.0,61,0.00,,,0.00,meteohub,2013-10-07 05:57:00,
2013-10-06 23:02:00,48.0,36.0,30.00,North,0,2.0,3.0,63,0.00,,,0.00,meteohub,2013-10-07 06:02:00,
2013-10-06 23:07:00,47.3,35.4,30.00,NW,315,2.0,2.0,63,0.00,,,0.00,meteohub,2013-10-07 06:07:00,
2013-10-06 23:12:00,46.9,35.4,30.01,NE,45,0.0,3.0,64,0.00,,,0.00,meteohub,2013-10-07 06:12:00,
2013-10-06 23:17:00,46.8,35.2,30.01,SW,225,2.0,3.0,64,0.00,,,0.00,meteohub,2013-10-07 06:17:00,
2013-10-06 23:22:00,46.6,35.1,30.01,East,90,2.0,3.0,64,0.00,,,0.00,meteohub,2013-10-07 06:22:00,
2013-10-06 23:27:00,46.4,35.2,30.00,SW,225,2.0,2.0,65,0.00,,,0.00,meteohub,2013-10-07 06:27:00,
2013-10-06 23:32:00,46.0,35.2,30.01,North,0,1.0,2.0,66,0.00,,,0.00,meteohub,2013-10-07 06:32:00,
2013-10-06 23:37:00,46.4,35.6,30.00,East,90,1.0,2.0,66,0.00,,,0.00,meteohub,2013-10-07 06:37:00,
2013-10-06 23:42:00,46.4,35.6,30.00,SE,135,1.0,2.0,66,0.00,,,0.00,meteohub,2013-10-07 06:42:00,
2013-10-06 23:47:00,46.0,35.8,30.00,SW,225,1.0,2.0,67,0.00,,,0.00,meteohub,2013-10-07 06:47:00,
2013-10-06 23:52:00,45.9,35.6,30.00,East,90,2.0,3.0,67,0.00,,,0.00,meteohub,2013-10-07 06:52:00,
2013-10-06 23:57:00,45.7,35.8,30.00,SW,225,2.0,3.0,68,0.00,,,0.00,meteohub,2013-10-07 06:57:00,